createdAt,value
2022-08-16T00:00:22.598Z,95.91
2022-08-16T00:05:26.126Z,96.75
2022-08-16T00:10:31.174Z,96.39
2022-08-16T00:15:51.397Z,96.86
2022-08-16T00:20:56.003Z,97.08
2022-08-16T00:26:35.193Z,97.28
2022-08-16T00:31:19.826Z,99.60
2022-08-16T00:36:26.018Z,99.32
2022-08-16T00:41:29.376Z,100.00
2022-08-16T00:46:36.252Z,100.00
2022-08-16T00:51:38.692Z,100.00
2022-08-16T00:56:56.747Z,100.00
2022-08-16T01:02:31.544Z,100.00
2022-08-16T01:07:24.120Z,100.00
2022-08-16T01:12:26.571Z,100.00
2022-08-16T01:17:30.306Z,100.00
2022-08-16T01:22:52.429Z,100.00
2022-08-16T01:27:58.237Z,100.00
2022-08-16T01:33:15.148Z,100.00
2022-08-16T01:38:25.563Z,100.00
2022-08-16T01:43:27.578Z,100.00
2022-08-16T01:48:32.356Z,100.00
2022-08-16T01:53:37.254Z,100.00
2022-08-16T01:58:47.940Z,100.00
2022-08-16T02:03:51.936Z,100.00
2022-08-16T02:08:54.626Z,100.00
2022-08-16T02:13:56.246Z,100.00
2022-08-16T02:18:57.738Z,100.00
2022-08-16T02:23:59.518Z,100.00
2022-08-16T02:29:01.169Z,100.00
2022-08-16T02:34:06.329Z,100.00
2022-08-16T02:39:10.525Z,100.00
2022-08-16T02:44:13.678Z,100.00
2022-08-16T02:49:16.755Z,100.00
2022-08-16T02:54:18.392Z,100.00
2022-08-16T02:59:21.310Z,100.00
2022-08-16T03:04:28.621Z,100.00
2022-08-16T03:09:33.638Z,100.00
2022-08-16T03:14:35.735Z,100.00
2022-08-16T03:19:42.279Z,100.00
2022-08-16T03:25:04.243Z,100.00
2022-08-16T03:30:17.841Z,100.00
2022-08-16T03:35:32.606Z,100.00
2022-08-16T03:40:37.366Z,100.00
2022-08-16T03:45:40.414Z,100.00
2022-08-16T03:50:42.963Z,100.00
2022-08-16T03:56:01.706Z,100.00
2022-08-16T04:01:03.879Z,100.00
2022-08-16T04:06:06.195Z,100.00
2022-08-16T04:11:07.751Z,100.00
2022-08-16T04:16:26.291Z,100.00
2022-08-16T04:21:34.600Z,100.00
2022-08-16T04:26:36.375Z,100.00
2022-08-16T04:31:37.788Z,100.00
2022-08-16T04:36:39.282Z,100.00
2022-08-16T04:41:40.749Z,100.00
2022-08-16T04:47:02.366Z,100.00
2022-08-16T04:52:04.893Z,100.00
2022-08-16T04:57:26.443Z,100.00
2022-08-16T05:02:41.969Z,100.00
2022-08-16T05:07:58.192Z,100.00
2022-08-16T05:13:03.201Z,100.00
2022-08-16T05:18:04.880Z,99.73
2022-08-16T05:23:06.414Z,97.66
2022-08-16T05:28:08.559Z,95.39
2022-08-16T05:33:16.233Z,86.31
2022-08-16T05:38:31.321Z,79.29
2022-08-16T05:43:43.497Z,66.26
2022-08-16T05:48:54.689Z,59.04
2022-08-16T05:53:56.863Z,53.24
2022-08-16T05:58:59.635Z,48.57
2022-08-16T06:04:01.346Z,43.93
2022-08-16T06:09:03.705Z,40.98
2022-08-16T06:14:05.635Z,37.87
2022-08-16T06:19:07.477Z,40.28
2022-08-16T06:24:53.550Z,36.68
2022-08-16T06:29:32.274Z,39.39
2022-08-16T06:34:56.858Z,37.28
2022-08-16T06:39:55.462Z,37.84
2022-08-16T06:44:57.035Z,37.65
2022-08-16T06:49:58.575Z,36.90
2022-08-16T06:55:00.113Z,32.32
2022-08-16T07:00:02.151Z,31.71
2022-08-16T07:05:15.555Z,31.83
2022-08-16T07:10:19.270Z,31.67
2022-08-16T07:15:27.302Z,28.45
2022-08-16T07:20:47.139Z,34.11
2022-08-16T07:25:49.623Z,33.30
2022-08-16T07:30:51.193Z,28.13
2022-08-16T07:35:52.683Z,29.54
2022-08-16T07:41:09.603Z,34.94
2022-08-16T07:46:38.402Z,33.79
2022-08-16T07:51:35.478Z,31.15
2022-08-16T07:56:38.770Z,31.63
2022-08-16T08:01:40.397Z,31.27
2022-08-16T08:06:43.711Z,28.18
2022-08-16T08:11:59.827Z,31.09
2022-08-16T08:17:04.244Z,34.88
2022-08-16T08:22:10.041Z,41.84
2022-08-16T08:27:22.742Z,45.41
2022-08-16T08:32:59.628Z,49.56
2022-08-16T08:37:54.542Z,48.81
2022-08-16T08:43:00.595Z,50.81
2022-08-16T08:48:33.403Z,54.42
2022-08-16T08:53:34.635Z,52.98
2022-08-16T08:58:36.230Z,53.47
2022-08-16T09:03:39.491Z,52.40
2022-08-16T09:08:47.413Z,50.47
2022-08-16T09:13:49.111Z,52.12
2022-08-16T09:18:56.836Z,50.76
2022-08-16T09:24:01.134Z,49.79
2022-08-16T09:29:14.616Z,49.14
2022-08-16T09:34:19.335Z,48.52
2022-08-16T09:39:21.099Z,47.60
2022-08-16T09:45:09.266Z,47.49
2022-08-16T09:49:45.335Z,46.56
2022-08-16T09:54:52.707Z,48.16
2022-08-16T09:59:56.156Z,47.68
2022-08-16T10:04:58.942Z,48.54
2022-08-16T10:10:00.764Z,47.83
2022-08-16T10:15:02.303Z,47.96
2022-08-16T10:20:04.463Z,47.28
2022-08-16T10:25:07.404Z,48.40
2022-08-16T10:30:25.699Z,46.53
2022-08-16T10:35:33.059Z,46.58
2022-08-16T10:40:34.917Z,46.99
2022-08-16T10:45:37.494Z,45.41
2022-08-16T10:50:39.049Z,45.69
2022-08-16T10:55:45.141Z,45.21
2022-08-16T11:00:47.448Z,43.73
2022-08-16T11:06:06.713Z,43.54
2022-08-16T11:11:15.568Z,41.10
2022-08-16T11:17:02.554Z,40.93
2022-08-16T11:27:23.988Z,41.83
2022-08-16T11:32:34.706Z,41.73
2022-08-16T11:38:23.184Z,41.87
2022-08-16T11:42:58.933Z,41.45
2022-08-16T11:48:01.053Z,41.28
2022-08-16T11:53:05.144Z,41.62
2022-08-16T11:58:08.612Z,40.92
2022-08-16T12:03:13.776Z,39.56
2022-08-16T12:08:18.294Z,41.21
2022-08-16T12:13:19.806Z,42.25
2022-08-16T12:18:22.978Z,40.92
2022-08-16T12:23:24.511Z,41.63
2022-08-16T12:28:36.931Z,40.70
2022-08-16T12:33:47.566Z,41.50
2022-08-16T12:38:53.010Z,42.98
2022-08-16T12:43:57.307Z,43.13
2022-08-16T12:49:04.590Z,43.75
2022-08-16T12:54:08.885Z,44.02
2022-08-16T12:59:11.507Z,43.76
2022-08-16T13:04:20.670Z,44.68
2022-08-16T13:09:23.138Z,44.54
2022-08-16T13:14:32.963Z,42.29
2022-08-16T13:20:03.829Z,42.95
2022-08-16T13:24:57.842Z,44.39
2022-08-16T13:30:00.007Z,42.73
2022-08-16T13:35:01.504Z,43.76
2022-08-16T13:40:05.094Z,42.38
2022-08-16T13:45:08.871Z,42.58
2022-08-16T13:50:11.215Z,42.79
2022-08-16T13:55:17.919Z,43.56
2022-08-16T14:00:20.900Z,43.05
2022-08-16T14:05:23.247Z,42.38
2022-08-16T14:10:24.897Z,42.76
2022-08-16T14:15:26.545Z,42.79
2022-08-16T14:20:28.246Z,41.91
2022-08-16T14:25:29.721Z,44.23
2022-08-16T14:30:31.262Z,43.58
2022-08-16T14:35:48.446Z,43.11
2022-08-16T14:40:54.978Z,43.07
2022-08-16T14:45:57.298Z,42.45
2022-08-16T14:50:59.007Z,41.66
2022-08-16T14:56:00.554Z,42.21
2022-08-16T15:01:02.128Z,43.02
2022-08-16T15:06:05.295Z,44.42
2022-08-16T15:11:07.706Z,43.02
2022-08-16T15:16:09.450Z,43.21
2022-08-16T15:21:10.920Z,44.58
2022-08-16T15:26:18.814Z,44.77
2022-08-16T15:31:34.091Z,43.06
2022-08-16T15:36:37.037Z,43.64
2022-08-16T15:41:38.575Z,44.62
2022-08-16T15:46:56.496Z,45.08
2022-08-16T15:51:59.529Z,44.85
2022-08-16T15:57:12.109Z,45.19
2022-08-16T16:02:13.743Z,44.04
2022-08-16T16:07:16.211Z,45.02
2022-08-16T16:12:50.171Z,45.99
2022-08-16T16:17:40.743Z,46.00
2022-08-16T16:22:42.323Z,43.57
2022-08-16T16:27:45.301Z,44.20
2022-08-16T16:32:47.016Z,45.85
2022-08-16T16:37:48.668Z,44.06
2022-08-16T16:42:52.567Z,46.00
2022-08-16T16:47:54.783Z,45.20
2022-08-16T16:52:56.435Z,45.97
2022-08-16T16:58:00.060Z,45.20
2022-08-16T17:03:04.651Z,47.09
2022-08-16T17:08:07.813Z,48.11
2022-08-16T17:13:11.433Z,48.13
2022-08-16T17:19:14.871Z,48.72
2022-08-16T17:23:59.682Z,47.03
2022-08-16T17:28:58.155Z,48.25
2022-08-16T17:34:03.442Z,48.34
2022-08-16T17:39:24.926Z,48.16
2022-08-16T17:44:26.538Z,48.43
2022-08-16T17:49:27.989Z,49.01
2022-08-16T17:54:30.680Z,49.76
2022-08-16T17:59:32.612Z,47.91
2022-08-16T18:04:48.780Z,48.59
2022-08-16T18:09:52.567Z,49.53
2022-08-16T18:14:59.894Z,49.48
2022-08-16T18:20:01.764Z,50.24
2022-08-16T18:25:05.623Z,51.59
2022-08-16T18:30:07.488Z,52.02
2022-08-16T18:35:09.226Z,53.23
2022-08-16T18:40:11.283Z,53.51
2022-08-16T18:45:13.123Z,54.47
2022-08-16T18:50:14.959Z,53.96
2022-08-16T18:55:16.674Z,53.68
2022-08-16T19:00:22.130Z,55.06
2022-08-16T19:05:26.214Z,71.27
2022-08-16T19:10:29.079Z,77.44
2022-08-16T19:15:30.558Z,75.35
2022-08-16T19:20:32.642Z,76.22
2022-08-16T19:25:47.296Z,64.18
2022-08-16T19:30:50.018Z,70.75
2022-08-16T19:35:51.484Z,69.04
2022-08-16T19:40:53.204Z,63.54
2022-08-16T19:45:54.707Z,68.34
2022-08-16T19:50:56.201Z,64.90
2022-08-16T19:55:57.646Z,64.16
2022-08-16T20:00:59.167Z,69.37
2022-08-16T20:06:01.234Z,63.19
2022-08-16T20:11:02.726Z,68.24
2022-08-16T20:16:04.232Z,66.73
2022-08-16T20:21:05.882Z,65.86
2022-08-16T20:26:07.354Z,67.84
2022-08-16T20:31:10.715Z,68.91
2022-08-16T20:36:16.380Z,65.04
2022-08-16T20:41:18.562Z,68.69
2022-08-16T20:46:20.128Z,66.18
2022-08-16T20:51:21.643Z,67.07
2022-08-16T20:56:23.128Z,68.96
2022-08-16T21:01:24.647Z,70.24
2022-08-16T21:06:52.981Z,67.68
2022-08-16T21:11:57.635Z,66.55
2022-08-16T21:17:00.172Z,67.09
2022-08-16T21:22:21.116Z,67.74
2022-08-16T21:27:22.632Z,69.93
2022-08-16T21:32:35.276Z,68.56
2022-08-16T21:38:28.157Z,68.91
2022-08-16T21:43:19.787Z,68.40
2022-08-16T21:48:33.835Z,69.07
2022-08-16T21:53:37.659Z,70.07
2022-08-16T21:58:39.453Z,69.97
2022-08-16T22:03:40.917Z,71.31
2022-08-16T22:08:48.738Z,69.91
2022-08-16T22:13:57.873Z,70.87
2022-08-16T22:19:01.605Z,73.32
2022-08-16T22:24:03.520Z,71.76
2022-08-16T22:29:08.978Z,72.05
2022-08-16T22:34:11.376Z,72.18
2022-08-16T22:39:14.335Z,73.67
2022-08-16T22:44:16.601Z,72.56
2022-08-16T22:49:18.023Z,73.54
2022-08-16T22:54:47.397Z,74.13
2022-08-16T22:59:40.904Z,74.84
2022-08-16T23:04:42.341Z,75.01
2022-08-16T23:09:43.820Z,75.24
2022-08-16T23:14:45.290Z,76.89
2022-08-16T23:19:46.745Z,75.96
2022-08-16T23:24:56.267Z,76.11
2022-08-16T23:29:58.523Z,76.75
2022-08-16T23:35:04.003Z,76.05
2022-08-16T23:40:07.734Z,76.75
2022-08-16T23:45:09.408Z,78.54
2022-08-16T23:50:10.908Z,78.20
2022-08-16T23:55:12.410Z,79.77
